Terminal Aerodrome Forecast
Issued by NWS Binghamton, NY

Home | Current Version | Previous Version | Text Only | Print | Product List | Glossary On
Versions: 1 2 3 4 5 6 7 8 9 10 11 12 13 14 15 16 17
371
FTUS41 KBGM 251735
TAFSYR
TAF
KSYR 251735Z 2518/2618 09012G25KT P6SM -RA OVC050 WS020/11045KT
      TEMPO 2518/2521 5SM -RA BR BKN025
     FM252100 08009KT 5SM BR OVC009
      TEMPO 2602/2606 BKN025
     FM260600 VRB03KT 5SM BR OVC011
     FM261600 30012KT P6SM OVC015=

USA.gov is the U.S. government's official web portal to all federal, state and local government web resources and services.